createdAt,value
2023-06-07T00:00:50.447Z,31.95
2023-06-07T00:03:53.408Z,27.57
2023-06-07T00:07:02.336Z,34.13
2023-06-07T00:10:05.915Z,30.27
2023-06-07T00:13:08.934Z,32.42
2023-06-07T00:16:11.897Z,32.05
2023-06-07T00:19:16.509Z,28.20
2023-06-07T00:22:19.295Z,31.02
2023-06-07T00:25:22.226Z,30.67
2023-06-07T00:28:25.370Z,29.77
2023-06-07T00:31:28.909Z,31.15
2023-06-07T00:34:31.793Z,23.63
2023-06-07T00:37:34.849Z,27.40
2023-06-07T00:40:37.575Z,27.20
2023-06-07T00:43:40.312Z,27.15
2023-06-07T00:46:43.128Z,29.00
2023-06-07T00:49:46.109Z,22.57
2023-06-07T00:52:49.106Z,26.08
2023-06-07T00:55:52.119Z,23.65
2023-06-07T00:58:55.048Z,22.98
2023-06-07T01:01:58.876Z,21.87
2023-06-07T01:05:05.004Z,24.47
2023-06-07T01:08:08.055Z,24.63
2023-06-07T01:11:12.146Z,23.70
2023-06-07T01:14:15.851Z,23.27
2023-06-07T01:17:19.467Z,24.58
2023-06-07T01:20:26.746Z,26.23
2023-06-07T01:23:34.076Z,23.27
2023-06-07T01:26:38.186Z,19.45
2023-06-07T01:29:41.140Z,21.20
2023-06-07T01:32:44.345Z,20.08
2023-06-07T01:35:48.400Z,20.40
2023-06-07T01:38:51.523Z,20.27
2023-06-07T01:41:54.746Z,20.70
2023-06-07T01:44:58.634Z,19.62
2023-06-07T01:48:02.119Z,19.02
2023-06-07T01:51:04.967Z,20.17
2023-06-07T01:54:07.779Z,18.40
2023-06-07T01:57:10.643Z,18.62
2023-06-07T02:00:24.473Z,17.42
2023-06-07T02:03:38.010Z,19.73
2023-06-07T02:06:45.204Z,18.83
2023-06-07T02:09:49.338Z,15.27
2023-06-07T02:12:54.435Z,16.48
2023-06-07T02:15:57.252Z,17.37
2023-06-07T02:19:00.782Z,18.23
2023-06-07T02:22:03.652Z,18.27
2023-06-07T02:25:06.899Z,16.95
2023-06-07T02:28:10.079Z,18.52
2023-06-07T02:31:12.800Z,19.12
2023-06-07T02:34:15.584Z,22.27
2023-06-07T02:37:18.996Z,17.73
2023-06-07T02:40:22.086Z,18.55
2023-06-07T02:43:24.701Z,17.33
2023-06-07T02:46:27.502Z,18.08
2023-06-07T02:49:30.238Z,17.83
2023-06-07T02:52:33.435Z,17.83
2023-06-07T02:55:36.196Z,17.15
2023-06-07T02:58:39.283Z,19.23
2023-06-07T03:01:42.018Z,17.40
2023-06-07T03:04:45.132Z,16.40
2023-06-07T03:07:47.814Z,17.10
2023-06-07T03:10:50.658Z,16.17
2023-06-07T03:13:53.433Z,17.10
2023-06-07T03:16:56.270Z,15.65
2023-06-07T03:19:58.942Z,18.23
2023-06-07T03:23:03.697Z,16.53
2023-06-07T03:26:06.591Z,17.33
2023-06-07T03:29:10.786Z,16.70
2023-06-07T03:32:13.415Z,15.75
2023-06-07T03:35:16.172Z,16.25
2023-06-07T03:38:18.836Z,17.77
2023-06-07T03:41:21.545Z,16.05
2023-06-07T03:44:25.123Z,17.58
2023-06-07T03:47:28.094Z,19.15
2023-06-07T03:50:30.993Z,16.62
2023-06-07T03:53:34.172Z,18.50
2023-06-07T03:56:37.222Z,17.65
2023-06-07T03:59:40.054Z,16.00
2023-06-07T04:02:43.092Z,18.25
2023-06-07T04:05:46.949Z,18.17
2023-06-07T04:08:49.625Z,16.80
2023-06-07T04:11:52.724Z,19.70
2023-06-07T04:14:55.470Z,14.82
2023-06-07T04:17:58.282Z,13.88
2023-06-07T04:21:01.258Z,14.90
2023-06-07T04:24:05.605Z,13.57
2023-06-07T04:27:12.805Z,15.45
2023-06-07T04:30:19.582Z,14.87
2023-06-07T04:33:22.577Z,14.60
2023-06-07T04:36:29.876Z,14.65
2023-06-07T04:39:32.541Z,14.13
2023-06-07T04:42:35.520Z,15.65
2023-06-07T04:45:41.415Z,15.10
2023-06-07T04:48:44.714Z,14.25
2023-06-07T04:51:49.890Z,15.20
2023-06-07T04:54:54.990Z,16.70
2023-06-07T04:58:01.387Z,17.02
2023-06-07T05:01:04.658Z,17.55
2023-06-07T05:04:07.515Z,16.83
2023-06-07T05:07:12.577Z,17.17
2023-06-07T05:10:15.373Z,19.73
2023-06-07T05:13:18.175Z,17.67
2023-06-07T05:16:21.510Z,18.15
2023-06-07T05:19:24.340Z,15.95
2023-06-07T05:22:27.300Z,16.77
2023-06-07T05:25:30.366Z,14.80
2023-06-07T05:28:33.105Z,15.15
2023-06-07T05:31:35.924Z,16.37
2023-06-07T05:34:39.600Z,15.63
2023-06-07T05:37:42.395Z,16.75
2023-06-07T05:40:45.168Z,16.47
2023-06-07T05:43:47.897Z,15.30
2023-06-07T05:46:50.641Z,17.52
2023-06-07T05:49:54.948Z,16.25
2023-06-07T05:52:58.733Z,15.98
2023-06-07T05:56:01.677Z,17.50
2023-06-07T05:59:04.385Z,18.10
2023-06-07T06:02:08.501Z,19.08
2023-06-07T06:05:11.438Z,20.12
2023-06-07T06:08:14.723Z,19.92
2023-06-07T06:11:17.581Z,23.27
2023-06-07T06:14:22.239Z,19.42
2023-06-07T06:17:25.030Z,21.70
2023-06-07T06:20:28.000Z,21.73
2023-06-07T06:23:30.785Z,22.92
2023-06-07T06:26:34.115Z,22.60
2023-06-07T06:29:36.828Z,20.80
2023-06-07T06:32:40.449Z,21.33
2023-06-07T06:35:44.642Z,22.15
2023-06-07T06:38:47.776Z,23.75
2023-06-07T06:41:50.615Z,19.37
2023-06-07T06:44:53.427Z,21.67
2023-06-07T06:47:56.448Z,22.35
2023-06-07T06:50:59.296Z,20.58
2023-06-07T06:54:02.104Z,19.52
2023-06-07T06:57:05.305Z,17.83
2023-06-07T07:00:11.687Z,16.12
2023-06-07T07:03:14.492Z,18.05
2023-06-07T07:06:18.182Z,16.20
2023-06-07T07:09:20.963Z,12.93
2023-06-07T07:12:23.876Z,12.83
2023-06-07T07:15:29.015Z,11.52
2023-06-07T07:18:31.778Z,11.23
2023-06-07T07:21:34.524Z,14.23
2023-06-07T07:24:37.202Z,12.07
2023-06-07T07:27:40.072Z,9.90
2023-06-07T07:30:42.820Z,10.02
2023-06-07T07:33:45.617Z,9.00
2023-06-07T07:36:48.560Z,9.93
2023-06-07T07:39:51.533Z,9.80
2023-06-07T07:42:54.274Z,8.43
2023-06-07T07:45:57.228Z,10.90
2023-06-07T07:49:00.193Z,9.75
2023-06-07T07:52:03.097Z,8.70
2023-06-07T07:55:08.624Z,10.80
2023-06-07T07:58:11.841Z,9.83
2023-06-07T08:01:16.587Z,9.20
2023-06-07T08:04:19.382Z,10.95
2023-06-07T08:07:22.199Z,11.10
2023-06-07T08:10:26.261Z,12.05
2023-06-07T08:13:29.892Z,10.30
2023-06-07T08:16:32.918Z,10.57
2023-06-07T08:19:36.024Z,10.10
2023-06-07T08:22:42.420Z,10.05
2023-06-07T08:25:45.081Z,8.18
2023-06-07T08:28:47.927Z,9.33
2023-06-07T08:31:50.780Z,9.50
2023-06-07T08:34:53.631Z,10.38
2023-06-07T08:37:56.395Z,10.40
2023-06-07T08:41:02.051Z,9.68
2023-06-07T08:44:05.084Z,8.90
2023-06-07T08:47:08.431Z,8.93
2023-06-07T08:50:15.397Z,9.50
2023-06-07T08:53:28.039Z,8.65
2023-06-07T08:56:34.508Z,9.20
2023-06-07T08:59:38.125Z,9.67
2023-06-07T09:02:41.002Z,8.27
2023-06-07T09:05:44.404Z,8.60
2023-06-07T09:08:47.263Z,9.10
2023-06-07T09:11:54.082Z,11.15
2023-06-07T09:14:57.032Z,9.53
2023-06-07T09:18:01.392Z,9.82
2023-06-07T09:21:24.188Z,9.25
2023-06-07T09:24:31.625Z,9.02
2023-06-07T09:27:34.577Z,8.77
2023-06-07T09:30:46.871Z,8.07
2023-06-07T09:33:49.663Z,7.37
2023-06-07T09:36:57.936Z,7.28
2023-06-07T09:40:09.088Z,7.53
2023-06-07T09:43:12.447Z,8.20
2023-06-07T09:46:16.385Z,8.70
2023-06-07T09:49:36.174Z,7.35
2023-06-07T09:52:40.438Z,7.45
2023-06-07T09:55:43.376Z,8.15
2023-06-07T09:58:50.816Z,6.93
2023-06-07T10:01:54.335Z,7.47
2023-06-07T10:04:59.704Z,11.35
2023-06-07T10:08:03.708Z,6.93
2023-06-07T10:11:06.886Z,8.20
2023-06-07T10:14:14.095Z,7.07
2023-06-07T10:17:18.027Z,7.63
2023-06-07T10:20:26.118Z,8.73
2023-06-07T10:23:45.912Z,7.50
2023-06-07T10:26:58.674Z,6.75
2023-06-07T10:30:03.118Z,7.35
2023-06-07T10:33:06.624Z,8.10
2023-06-07T10:36:09.702Z,7.55
2023-06-07T10:39:13.267Z,10.30
2023-06-07T10:42:17.269Z,9.27
2023-06-07T10:45:21.153Z,8.00
2023-06-07T10:48:35.894Z,6.70
2023-06-07T10:51:53.150Z,7.37
2023-06-07T10:54:56.182Z,7.20
2023-06-07T10:57:59.903Z,12.63
2023-06-07T11:01:23.045Z,9.50
2023-06-07T11:04:41.499Z,8.37
2023-06-07T11:07:49.144Z,7.00
2023-06-07T11:10:52.213Z,7.15
2023-06-07T11:13:54.900Z,7.55
2023-06-07T11:16:58.006Z,7.60
2023-06-07T11:20:01.800Z,8.77
2023-06-07T11:23:30.330Z,9.38
2023-06-07T11:26:37.007Z,8.02
2023-06-07T11:29:41.053Z,8.68
2023-06-07T11:32:45.465Z,8.50
2023-06-07T11:35:53.261Z,9.03
2023-06-07T11:38:57.865Z,8.70
2023-06-07T11:42:00.852Z,9.57
2023-06-07T11:45:05.471Z,11.15
2023-06-07T11:48:09.332Z,10.25
2023-06-07T11:51:13.201Z,10.13
2023-06-07T11:54:16.412Z,11.45
2023-06-07T11:57:20.654Z,11.12
2023-06-07T12:00:25.021Z,10.63
2023-06-07T12:03:28.468Z,12.27
2023-06-07T12:06:31.758Z,10.53
2023-06-07T12:09:41.706Z,11.82
2023-06-07T12:12:44.643Z,11.85
2023-06-07T12:15:55.542Z,11.35
2023-06-07T12:18:58.693Z,11.32
2023-06-07T12:22:09.404Z,12.77
2023-06-07T12:25:16.807Z,10.60
2023-06-07T12:28:22.336Z,11.18
2023-06-07T12:31:29.724Z,10.85
2023-06-07T12:34:33.462Z,11.35
2023-06-07T12:37:37.160Z,11.47
2023-06-07T12:40:40.058Z,11.00
2023-06-07T12:43:50.175Z,11.88
2023-06-07T12:46:53.073Z,10.93
2023-06-07T12:49:55.915Z,9.90
2023-06-07T12:52:58.781Z,10.40
2023-06-07T12:56:01.681Z,10.57
2023-06-07T12:59:04.598Z,11.25
2023-06-07T13:02:07.707Z,10.20
2023-06-07T13:05:14.281Z,9.43
2023-06-07T13:08:17.466Z,11.80
2023-06-07T13:11:20.257Z,9.45
2023-06-07T13:14:23.195Z,10.50
2023-06-07T13:17:26.460Z,9.63
2023-06-07T13:20:29.517Z,10.02
2023-06-07T13:23:32.353Z,11.77
2023-06-07T13:26:35.127Z,11.07
2023-06-07T13:29:37.955Z,11.88
2023-06-07T13:32:41.848Z,9.13
2023-06-07T13:35:44.716Z,10.23
2023-06-07T13:38:47.572Z,10.40
2023-06-07T13:41:50.321Z,8.48
2023-06-07T13:44:53.992Z,7.50
2023-06-07T13:47:56.836Z,8.45
2023-06-07T13:50:59.803Z,8.20
2023-06-07T13:54:02.825Z,7.97
2023-06-07T13:57:06.107Z,8.27
2023-06-07T14:00:10.127Z,9.23
2023-06-07T14:03:13.576Z,8.75
2023-06-07T14:06:16.688Z,7.30
2023-06-07T14:09:20.607Z,8.10
2023-06-07T14:12:23.390Z,8.13
2023-06-07T14:15:28.004Z,8.98
2023-06-07T14:18:31.219Z,7.80
2023-06-07T14:21:35.001Z,10.10
2023-06-07T14:24:37.841Z,13.10
2023-06-07T14:27:40.534Z,10.25
2023-06-07T14:30:43.292Z,9.07
2023-06-07T14:33:46.392Z,8.77
2023-06-07T14:36:49.219Z,11.00
2023-06-07T14:39:52.126Z,13.60
2023-06-07T14:42:55.061Z,11.10
2023-06-07T14:45:58.079Z,17.12
2023-06-07T14:49:01.098Z,11.98
2023-06-07T14:52:04.622Z,11.85
2023-06-07T14:55:08.845Z,10.53
2023-06-07T14:58:12.324Z,10.52
2023-06-07T15:01:15.991Z,9.60
2023-06-07T15:04:19.288Z,9.70
2023-06-07T15:07:22.089Z,8.88
2023-06-07T15:10:24.944Z,9.20
2023-06-07T15:13:27.641Z,9.23
2023-06-07T15:16:30.825Z,11.63
2023-06-07T15:19:34.273Z,13.95
2023-06-07T15:22:41.470Z,9.98
2023-06-07T15:25:44.224Z,9.87
2023-06-07T15:28:46.977Z,9.98
2023-06-07T15:31:52.995Z,9.52
2023-06-07T15:34:56.011Z,9.18
2023-06-07T15:37:58.734Z,10.43
2023-06-07T15:41:01.570Z,8.30
2023-06-07T15:44:07.387Z,11.05
2023-06-07T15:47:11.458Z,9.25
2023-06-07T15:50:14.288Z,9.05
2023-06-07T15:53:20.548Z,9.60
2023-06-07T15:56:23.355Z,8.70
2023-06-07T15:59:26.197Z,8.40
2023-06-07T16:02:29.160Z,8.90
2023-06-07T16:05:32.186Z,10.13
2023-06-07T16:08:35.008Z,10.13
2023-06-07T16:11:39.903Z,8.30
2023-06-07T16:14:43.006Z,7.97
2023-06-07T16:17:45.812Z,7.72
2023-06-07T16:20:48.593Z,8.05
2023-06-07T16:23:51.491Z,9.10
2023-06-07T16:26:54.430Z,8.43
2023-06-07T16:29:57.399Z,9.65
2023-06-07T16:33:05.792Z,7.65
2023-06-07T16:36:08.819Z,11.05
2023-06-07T16:39:11.601Z,11.02
2023-06-07T16:42:14.510Z,8.43
2023-06-07T16:45:17.276Z,8.65
2023-06-07T16:48:23.050Z,10.32
2023-06-07T16:51:25.923Z,9.63
2023-06-07T16:54:28.728Z,7.95
2023-06-07T16:57:31.434Z,8.23
2023-06-07T17:00:34.253Z,8.05
2023-06-07T17:03:37.089Z,7.72
2023-06-07T17:06:39.989Z,7.87
2023-06-07T17:09:42.741Z,8.43
2023-06-07T17:12:45.815Z,7.97
2023-06-07T17:15:50.720Z,7.72
2023-06-07T17:18:53.708Z,7.93
2023-06-07T17:21:56.432Z,7.60
2023-06-07T17:24:59.329Z,7.55
2023-06-07T17:28:05.624Z,8.60
2023-06-07T17:31:08.480Z,8.00
2023-06-07T17:34:13.284Z,8.73
2023-06-07T17:37:18.984Z,7.85
2023-06-07T17:40:21.761Z,8.45
2023-06-07T17:43:24.534Z,8.60
2023-06-07T17:46:27.310Z,9.23
2023-06-07T17:49:30.761Z,8.93
2023-06-07T17:52:33.469Z,8.85
2023-06-07T17:55:36.547Z,10.40
2023-06-07T17:58:39.400Z,9.20
2023-06-07T18:01:44.439Z,9.07
2023-06-07T18:04:47.316Z,10.00
2023-06-07T18:07:50.221Z,8.98
2023-06-07T18:10:53.139Z,9.60
2023-06-07T18:13:56.241Z,8.87
2023-06-07T18:16:59.186Z,10.93
2023-06-07T18:20:02.812Z,10.05
2023-06-07T18:23:06.695Z,10.45
2023-06-07T18:26:11.553Z,9.02
2023-06-07T18:29:16.414Z,11.30
2023-06-07T18:32:19.372Z,9.48
2023-06-07T18:35:22.392Z,10.63
2023-06-07T18:38:25.729Z,11.73
2023-06-07T18:41:29.251Z,10.07
2023-06-07T18:44:32.921Z,10.67
2023-06-07T18:47:35.907Z,11.12
2023-06-07T18:50:38.801Z,9.73
2023-06-07T18:53:41.694Z,10.32
2023-06-07T18:56:44.499Z,9.10
2023-06-07T18:59:48.670Z,9.20
2023-06-07T19:02:52.441Z,11.02
2023-06-07T19:05:56.377Z,11.48
2023-06-07T19:08:59.208Z,9.30
2023-06-07T19:12:02.097Z,11.82
2023-06-07T19:15:05.758Z,11.20
2023-06-07T19:18:09.387Z,10.02
2023-06-07T19:21:13.124Z,9.60
2023-06-07T19:24:16.636Z,9.25
2023-06-07T19:27:19.943Z,12.70
2023-06-07T19:30:22.904Z,1999.90
2023-06-07T19:33:28.510Z,1499.07
2023-06-07T19:36:32.673Z,1523.85
2023-06-07T19:39:35.584Z,899.10
2023-06-07T19:42:39.170Z,1066.20
2023-06-07T19:45:41.990Z,1137.07
2023-06-07T19:48:46.828Z,1080.88
2023-06-07T19:51:49.627Z,932.62
2023-06-07T19:54:53.197Z,725.35
2023-06-07T19:57:55.988Z,610.78
2023-06-07T20:00:58.919Z,509.60
2023-06-07T20:04:03.511Z,521.87
2023-06-07T20:07:09.414Z,611.97
2023-06-07T20:10:12.258Z,457.40
2023-06-07T20:13:18.347Z,441.90
2023-06-07T20:16:21.687Z,310.90
2023-06-07T20:19:24.868Z,366.27
2023-06-07T20:22:33.881Z,328.62
2023-06-07T20:25:36.820Z,304.15
2023-06-07T20:28:39.769Z,203.77
2023-06-07T20:31:46.411Z,196.53
2023-06-07T20:34:49.209Z,181.48
2023-06-07T20:37:52.153Z,191.88
2023-06-07T20:40:54.829Z,204.27
2023-06-07T20:43:57.570Z,215.52
2023-06-07T20:47:01.414Z,199.03
2023-06-07T20:50:04.712Z,166.15
2023-06-07T20:53:07.816Z,156.10
2023-06-07T20:56:10.709Z,147.43
2023-06-07T20:59:13.457Z,140.05
2023-06-07T21:02:16.384Z,138.93
2023-06-07T21:05:20.700Z,158.85
2023-06-07T21:08:23.650Z,155.90
2023-06-07T21:11:26.979Z,154.77
2023-06-07T21:14:32.894Z,144.40
2023-06-07T21:17:35.863Z,121.43
2023-06-07T21:20:38.568Z,114.93
2023-06-07T21:23:41.526Z,113.97
2023-06-07T21:26:47.304Z,106.82
2023-06-07T21:29:53.962Z,110.30
2023-06-07T21:32:56.879Z,109.80
2023-06-07T21:35:59.855Z,97.70
2023-06-07T21:39:02.807Z,89.28
2023-06-07T21:42:06.124Z,87.12
2023-06-07T21:45:09.533Z,87.45
2023-06-07T21:48:15.418Z,74.47
2023-06-07T21:51:18.217Z,69.40
2023-06-07T21:54:21.002Z,68.30
2023-06-07T21:57:23.825Z,68.95
2023-06-07T22:00:27.259Z,72.93
2023-06-07T22:03:30.086Z,71.57
2023-06-07T22:06:32.864Z,68.68
2023-06-07T22:09:35.611Z,63.92
2023-06-07T22:12:41.850Z,66.30
2023-06-07T22:15:45.727Z,67.20
2023-06-07T22:18:49.905Z,69.97
2023-06-07T22:21:52.598Z,66.57
2023-06-07T22:24:55.271Z,60.47
2023-06-07T22:27:59.302Z,60.55
2023-06-07T22:31:05.090Z,65.28
2023-06-07T22:34:08.680Z,63.73
2023-06-07T22:37:12.624Z,62.65
2023-06-07T22:40:15.401Z,58.10
2023-06-07T22:43:18.129Z,61.88
2023-06-07T22:46:20.907Z,60.63
2023-06-07T22:49:23.634Z,60.20
2023-06-07T22:52:29.800Z,57.25
2023-06-07T22:55:34.104Z,65.47
2023-06-07T22:58:37.068Z,69.25
2023-06-07T23:01:39.701Z,62.67
2023-06-07T23:04:46.286Z,92.13
2023-06-07T23:07:50.429Z,83.68
2023-06-07T23:10:54.059Z,102.78
2023-06-07T23:14:01.020Z,73.95
2023-06-07T23:17:04.012Z,68.90
2023-06-07T23:20:11.224Z,97.40
2023-06-07T23:23:14.008Z,116.82
2023-06-07T23:26:18.119Z,102.00
2023-06-07T23:29:21.955Z,79.22
2023-06-07T23:32:24.845Z,70.95
2023-06-07T23:35:28.070Z,68.10
2023-06-07T23:38:30.755Z,60.97
2023-06-07T23:41:33.560Z,59.97
2023-06-07T23:44:36.244Z,63.35
2023-06-07T23:47:39.064Z,68.65
2023-06-07T23:50:44.620Z,66.47
2023-06-07T23:53:47.382Z,64.62
2023-06-07T23:56:50.754Z,58.72
2023-06-07T23:59:53.548Z,56.55
